createdAt,value
2022-12-24T06:20:00.504Z,4.01
2022-12-24T06:28:43.120Z,4.01
2022-12-24T06:37:24.083Z,4.03
2022-12-24T06:45:58.870Z,3.95
2022-12-24T06:54:34.329Z,3.94
2022-12-24T07:03:10.381Z,3.88
2022-12-24T07:11:45.160Z,3.81
2022-12-24T07:20:19.963Z,3.86
2022-12-24T07:28:51.593Z,3.83
2022-12-24T07:37:24.959Z,3.74
2022-12-24T07:45:56.317Z,3.83
2022-12-24T07:54:19.299Z,3.84
2022-12-24T08:02:42.512Z,3.76
2022-12-24T08:11:07.684Z,3.77
2022-12-24T08:19:30.851Z,3.84
2022-12-24T08:27:53.871Z,3.87
2022-12-24T08:36:17.112Z,3.97
2022-12-24T08:44:40.270Z,4.02
2022-12-24T08:53:03.310Z,4.02
2022-12-24T09:01:26.614Z,4.15
2022-12-24T09:09:49.922Z,4.23
2022-12-24T09:18:12.877Z,4.29
2022-12-24T09:26:36.539Z,4.45
2022-12-24T09:35:00.148Z,4.57
2022-12-24T09:43:25.465Z,4.53
2022-12-24T09:51:57.153Z,4.55
2022-12-24T10:00:30.425Z,4.48
2022-12-24T10:09:15.856Z,4.41
2022-12-24T10:18:00.839Z,4.46
2022-12-24T10:26:37.011Z,4.44
2022-12-24T10:35:06.617Z,4.35
2022-12-24T10:43:30.670Z,4.41
2022-12-24T10:52:03.353Z,4.39
2022-12-24T11:00:31.930Z,4.35
2022-12-24T11:09:20.743Z,4.40
2022-12-24T11:18:05.322Z,4.53
2022-12-24T11:26:30.718Z,4.56
2022-12-24T11:34:53.535Z,4.69
2022-12-24T11:43:22.066Z,4.73
2022-12-24T11:52:10.236Z,4.71
2022-12-24T12:00:33.530Z,4.77
2022-12-24T12:09:06.121Z,4.83
2022-12-24T12:18:16.641Z,4.77
2022-12-24T12:26:41.360Z,4.69
2022-12-24T12:35:17.151Z,4.57
2022-12-24T12:43:49.354Z,4.46
2022-12-24T12:52:17.168Z,4.49
2022-12-24T13:00:45.378Z,4.45
2022-12-24T13:09:23.710Z,4.38
2022-12-24T13:17:49.464Z,4.40
2022-12-24T13:26:14.822Z,4.39
2022-12-24T13:34:38.925Z,4.31
2022-12-24T13:43:01.824Z,4.31
2022-12-24T13:51:26.454Z,4.24
2022-12-24T14:00:02.566Z,4.18
2022-12-24T14:08:47.953Z,4.20
2022-12-24T14:17:27.063Z,4.23
2022-12-24T14:25:50.020Z,4.08
2022-12-24T14:34:13.853Z,3.98
2022-12-24T14:42:45.299Z,3.95
2022-12-24T14:51:20.522Z,3.86
2022-12-24T14:59:49.436Z,3.83
2022-12-24T15:08:19.690Z,3.80
2022-12-24T15:16:52.826Z,3.66
2022-12-24T15:25:25.244Z,3.64
2022-12-24T15:33:50.410Z,3.56
2022-12-24T15:42:18.803Z,3.49
2022-12-24T15:50:47.141Z,3.55
2022-12-24T15:59:13.183Z,3.65
2022-12-24T16:07:56.056Z,3.67
2022-12-24T16:16:32.615Z,3.74
2022-12-24T16:24:55.832Z,3.76
2022-12-24T16:33:20.876Z,3.69
2022-12-24T16:42:02.477Z,3.73
2022-12-24T16:50:25.293Z,3.75
2022-12-24T16:58:48.105Z,3.70
2022-12-24T17:07:12.901Z,3.73
2022-12-24T17:15:35.783Z,3.77
2022-12-24T17:23:58.704Z,3.73
2022-12-24T17:32:21.631Z,3.78
2022-12-24T17:40:44.661Z,3.77
2022-12-24T17:49:07.977Z,3.68
2022-12-24T17:57:30.787Z,3.63
2022-12-24T18:05:53.777Z,3.52
2022-12-24T18:14:18.952Z,3.43
2022-12-24T18:22:41.854Z,3.46
2022-12-24T18:31:07.536Z,3.51
2022-12-24T18:39:30.505Z,3.51
2022-12-24T18:47:53.419Z,3.49
2022-12-24T18:56:22.818Z,3.47
2022-12-24T19:04:45.623Z,3.36
2022-12-24T19:13:08.429Z,3.35
2022-12-24T19:21:31.287Z,3.36
2022-12-24T19:29:54.125Z,3.28
2022-12-24T19:38:16.902Z,3.28
2022-12-24T19:46:40.206Z,3.27
2022-12-24T19:55:03.099Z,3.20
2022-12-24T20:03:25.976Z,3.27
2022-12-24T20:11:52.082Z,3.27
2022-12-24T20:20:15.097Z,3.20
2022-12-24T20:28:38.963Z,3.22
2022-12-24T20:37:02.092Z,3.24
2022-12-24T20:45:25.134Z,3.17
2022-12-24T20:53:48.043Z,3.19
2022-12-24T21:02:14.240Z,3.16
2022-12-24T21:10:37.884Z,3.07
2022-12-24T21:19:01.586Z,3.07
2022-12-24T21:27:24.421Z,3.08
2022-12-24T21:35:47.576Z,3.13
2022-12-24T21:44:10.422Z,3.22
2022-12-24T21:52:33.773Z,3.13
2022-12-24T22:00:57.723Z,3.04
2022-12-24T22:09:39.093Z,2.97
2022-12-24T22:18:02.370Z,2.99
2022-12-24T22:26:25.401Z,2.91
2022-12-24T22:34:49.625Z,2.93
2022-12-24T22:43:12.519Z,2.96
2022-12-24T22:51:35.732Z,2.89
2022-12-24T22:59:58.655Z,2.92
2022-12-24T23:08:21.700Z,2.95
2022-12-24T23:16:44.693Z,2.88
2022-12-24T23:25:07.839Z,2.89
2022-12-24T23:33:31.173Z,2.84
2022-12-24T23:41:54.199Z,2.78
2022-12-24T23:50:17.140Z,2.86
2022-12-24T23:58:41.476Z,2.86
